Time;durP1;ratioP1;P1;durP2;ratioP2;P2;SDS_P1;SDS_P2;PMS_P1;PMS_P2;Temp;Humidity;BMP_temperature;BMP_pressure;BME280_temperature;BME280_humidity;BME280_pressure;Samples;Min_cycle;Max_cycle;Signal;HPM_P1;HPM_P2
2022/07/22 00:02:11;;;;;;;16.30;5.17;;;21.30;66.20;;;;;;5064017;28;20265;-96
2022/07/22 00:04:39;;;;;;;13.07;4.20;;;21.30;66.40;;;;;;5040440;28;20242;-95
2022/07/22 00:07:06;;;;;;;15.27;5.43;;;21.30;66.50;;;;;;5050356;28;20657;-96
2022/07/22 00:09:33;;;;;;;11.93;3.67;;;21.20;66.40;;;;;;5043823;28;20283;-96
2022/07/22 00:12:06;;;;;;;9.10;3.07;;;21.20;66.60;;;;;;5040335;28;20269;-96
2022/07/22 00:14:33;;;;;;;13.10;3.97;;;21.20;67.00;;;;;;5053225;28;20207;-96
2022/07/22 00:17:01;;;;;;;14.40;4.10;;;21.10;66.90;;;;;;5051590;28;20240;-96
2022/07/22 00:19:30;;;;;;;6.03;2.50;;;21.00;66.80;;;;;;5047825;28;20204;-96
2022/07/22 00:21:58;;;;;;;6.37;2.43;;;21.00;66.80;;;;;;5052667;28;20207;-96
2022/07/22 00:24:25;;;;;;;9.53;3.03;;;21.00;67.00;;;;;;5052327;28;20235;-96
2022/07/22 00:26:53;;;;;;;9.67;3.30;;;20.90;67.00;;;;;;5052906;28;20203;-96
2022/07/22 00:29:28;;;;;;;8.93;2.87;;;20.90;67.30;;;;;;5058918;28;20738;-96
2022/07/22 00:31:55;;;;;;;7.83;2.93;;;20.90;67.50;;;;;;5072617;28;20754;-96
2022/07/22 00:34:23;;;;;;;10.17;3.30;;;20.80;67.30;;;;;;5062738;28;20583;-96
2022/07/22 00:36:51;;;;;;;13.47;3.43;;;20.80;67.60;;;;;;5052012;28;20239;-96
2022/07/22 00:39:18;;;;;;;8.93;3.20;;;20.70;67.50;;;;;;5053071;28;20220;-96
2022/07/22 00:41:48;;;;;;;12.90;4.17;;;20.70;67.70;;;;;;5059393;28;20258;-95
2022/07/22 00:44:16;;;;;;;12.53;3.67;;;20.70;67.90;;;;;;5054521;28;20291;-96
2022/07/22 00:46:45;;;;;;;11.67;3.67;;;20.70;68.10;;;;;;5063662;28;20742;-96
2022/07/22 00:49:12;;;;;;;9.90;3.30;;;20.70;68.20;;;;;;5052625;28;20696;-94
2022/07/22 00:51:40;;;;;;;10.67;3.40;;;20.70;68.10;;;;;;5050105;28;20211;-94
2022/07/22 00:54:11;;;;;;;11.63;3.57;;;20.60;68.20;;;;;;5053695;28;20204;-94
2022/07/22 00:56:48;;;;;;;10.00;3.00;;;20.60;68.50;;;;;;5055138;28;20208;-92
2022/07/22 00:59:18;;;;;;;12.70;3.63;;;20.60;68.70;;;;;;5047482;28;20668;-93
2022/07/22 01:01:47;;;;;;;8.40;2.87;;;20.60;68.70;;;;;;5039109;28;20273;-93
2022/07/22 01:04:15;;;;;;;6.23;2.53;;;20.50;68.50;;;;;;5052566;28;20202;-92
2022/07/22 01:06:44;;;;;;;5.40;2.27;;;20.60;68.70;;;;;;5051693;28;20200;-93
2022/07/22 01:09:12;;;;;;;13.57;4.67;;;20.50;68.40;;;;;;5051360;28;20757;-93
2022/07/22 01:11:40;;;;;;;8.80;3.13;;;20.50;68.10;;;;;;5051618;28;20250;-92
2022/07/22 01:14:09;;;;;;;13.47;4.43;;;20.50;68.20;;;;;;5050138;28;20227;-91
2022/07/22 01:16:42;;;;;;;10.07;2.90;;;20.50;68.50;;;;;;5051183;28;20185;-91
2022/07/22 01:19:12;;;;;;;13.50;4.50;;;20.50;69.00;;;;;;5059872;28;20301;-94
2022/07/22 01:21:41;;;;;;;6.37;2.40;;;20.50;68.80;;;;;;5036339;28;20200;-94
2022/07/22 01:24:08;;;;;;;9.00;2.97;;;20.40;68.90;;;;;;5050040;28;20588;-94
2022/07/22 01:26:40;;;;;;;10.37;3.97;;;20.40;68.90;;;;;;5050112;28;20210;-94
2022/07/22 01:29:10;;;;;;;14.80;4.10;;;20.40;69.20;;;;;;5047385;28;20204;-93
2022/07/22 01:31:39;;;;;;;7.57;3.13;;;20.30;69.20;;;;;;5050208;28;20286;-95
2022/07/22 01:34:06;;;;;;;11.90;3.63;;;20.30;69.30;;;;;;5045971;28;20200;-95
2022/07/22 01:36:40;;;;;;;8.27;3.00;;;20.30;69.40;;;;;;5050852;28;20200;-93
2022/07/22 01:39:09;;;;;;;13.37;4.27;;;20.30;69.70;;;;;;5062135;28;20187;-96
2022/07/22 01:41:36;;;;;;;11.70;3.97;;;20.30;69.60;;;;;;5061214;28;20233;-94
2022/07/22 01:44:04;;;;;;;9.93;3.50;;;20.30;69.70;;;;;;5038994;28;20248;-96
2022/07/22 01:46:33;;;;;;;9.07;2.80;;;20.20;69.70;;;;;;5069753;28;20288;-94
2022/07/22 01:49:14;;;;;;;7.03;3.07;;;20.30;70.00;;;;;;5058515;28;20667;-94
2022/07/22 01:51:44;;;;;;;6.40;2.57;;;20.20;70.20;;;;;;5056160;28;20207;-94
2022/07/22 01:54:19;;;;;;;5.70;2.60;;;20.20;70.00;;;;;;5055808;28;20250;-96
2022/07/22 01:56:47;;;;;;;9.37;3.27;;;20.20;70.50;;;;;;5056039;28;21017;-93
2022/07/22 01:59:15;;;;;;;9.70;2.83;;;20.20;70.20;;;;;;5056188;28;20200;-95
2022/07/22 02:01:44;;;;;;;11.03;3.30;;;20.20;70.20;;;;;;5055232;28;20192;-94
2022/07/22 02:04:19;;;;;;;9.43;3.23;;;20.20;70.30;;;;;;5052228;28;20257;-95
2022/07/22 02:06:48;;;;;;;9.60;3.20;;;20.20;70.50;;;;;;5054669;28;20231;-96
2022/07/22 02:11:44;;;;;;;8.07;2.90;;;20.20;70.10;;;;;;5110434;27;20558;-92
2022/07/22 02:14:11;;;;;;;5.50;2.20;;;20.20;69.80;;;;;;5109853;28;20675;-93
2022/07/22 02:16:39;;;;;;;11.37;3.80;;;20.20;69.70;;;;;;5108579;28;20198;-93
2022/07/22 02:19:11;;;;;;;9.17;3.23;;;20.20;69.70;;;;;;5098989;28;20701;-94
2022/07/22 02:21:38;;;;;;;8.23;3.27;;;20.20;69.60;;;;;;5106133;28;20199;-95
2022/07/22 02:24:11;;;;;;;6.80;2.53;;;20.20;69.60;;;;;;5089849;28;20241;-95
2022/07/22 02:26:40;;;;;;;9.33;3.37;;;20.20;70.00;;;;;;5089528;28;20208;-94
2022/07/22 02:29:42;;;;;;;7.10;2.57;;;20.20;69.70;;;;;;5092343;28;20678;-93
2022/07/22 02:32:13;;;;;;;6.50;2.70;;;20.20;70.30;;;;;;5100163;28;20703;-95
2022/07/22 02:34:41;;;;;;;6.73;1.93;;;20.20;70.00;;;;;;5102536;28;20228;-94
2022/07/22 02:37:08;;;;;;;5.07;2.40;;;20.10;69.80;;;;;;5109056;28;20200;-94
2022/07/22 02:39:35;;;;;;;6.67;2.60;;;20.10;69.60;;;;;;5110528;28;20306;-95
2022/07/22 02:42:08;;;;;;;5.57;2.67;;;20.10;69.60;;;;;;5101191;28;20220;-95
2022/07/22 02:44:39;;;;;;;7.50;3.20;;;20.10;69.60;;;;;;5094356;28;20631;-96
2022/07/22 02:47:07;;;;;;;6.23;2.90;;;20.00;69.30;;;;;;5110799;28;20247;-95
2022/07/22 02:49:38;;;;;;;4.93;2.33;;;20.10;69.20;;;;;;5102621;28;20201;-96
2022/07/22 02:52:06;;;;;;;7.10;2.83;;;20.10;69.40;;;;;;5090610;28;20245;-95
2022/07/22 02:54:33;;;;;;;3.50;1.77;;;20.00;69.40;;;;;;5095153;28;20213;-95
2022/07/22 02:57:00;;;;;;;9.53;3.13;;;20.00;69.30;;;;;;5105787;28;20404;-95
2022/07/22 02:59:30;;;;;;;10.70;3.77;;;20.00;69.30;;;;;;5105441;28;20257;-94
2022/07/22 03:02:00;;;;;;;9.57;2.77;;;19.90;69.20;;;;;;5089655;28;20451;-96
2022/07/22 03:04:27;;;;;;;9.93;3.77;;;19.90;69.60;;;;;;5092644;28;20658;-94
2022/07/22 03:06:56;;;;;;;10.13;3.80;;;19.90;69.10;;;;;;5110253;28;20672;-96
2022/07/22 03:09:23;;;;;;;11.17;3.80;;;19.80;69.30;;;;;;5100763;28;20215;-95
2022/07/22 03:11:52;;;;;;;8.70;3.07;;;19.80;69.40;;;;;;5089251;28;20248;-95
2022/07/22 03:14:23;;;;;;;9.10;3.77;;;19.80;69.70;;;;;;5089171;28;20187;-94
2022/07/22 03:16:50;;;;;;;11.67;4.47;;;19.80;69.80;;;;;;5092634;28;20222;-94
2022/07/22 03:19:19;;;;;;;12.60;4.83;;;19.70;69.70;;;;;;5107507;28;20228;-94
2022/07/22 03:21:48;;;;;;;7.47;2.83;;;19.70;69.90;;;;;;5105700;28;20205;-95
2022/07/22 03:24:16;;;;;;;9.13;3.27;;;19.70;70.00;;;;;;5094989;28;20250;-94
2022/07/22 03:26:43;;;;;;;8.77;3.83;;;19.60;70.00;;;;;;5096301;28;20214;-95
2022/07/22 03:29:12;;;;;;;8.53;3.13;;;19.60;70.00;;;;;;5090571;28;20206;-95
2022/07/22 03:31:40;;;;;;;5.83;2.47;;;19.60;70.20;;;;;;5095693;28;20228;-96
2022/07/22 03:34:13;;;;;;;12.40;4.13;;;19.50;70.20;;;;;;5091377;28;20213;-96
2022/07/22 03:36:43;;;;;;;5.67;2.37;;;19.50;70.60;;;;;;5088519;28;20202;-94
2022/07/22 03:39:12;;;;;;;7.50;3.43;;;19.40;70.50;;;;;;5092435;28;20260;-95
2022/07/22 03:44:31;;;;;;;9.37;3.10;;;19.30;70.40;;;;;;5076502;28;20213;-94
2022/07/22 03:46:58;;;;;;;5.03;2.50;;;19.30;70.80;;;;;;5077981;28;20196;-94
2022/07/22 03:49:29;;;;;;;5.90;2.57;;;19.30;70.70;;;;;;5075952;28;20203;-94
2022/07/22 03:51:58;;;;;;;6.23;2.40;;;19.30;70.70;;;;;;5075215;28;20244;-94
2022/07/22 03:54:27;;;;;;;9.53;3.37;;;19.30;71.10;;;;;;5074793;28;20211;-93
2022/07/22 03:56:57;;;;;;;8.00;3.30;;;19.20;71.10;;;;;;5074809;28;20228;-95
2022/07/22 03:59:30;;;;;;;9.73;3.43;;;19.20;71.40;;;;;;5088905;28;20269;-95
2022/07/22 04:02:00;;;;;;;4.93;2.30;;;19.10;71.50;;;;;;5075180;28;20733;-95
2022/07/22 04:04:28;;;;;;;6.67;2.87;;;19.10;71.40;;;;;;5074134;28;20264;-94
2022/07/22 04:06:58;;;;;;;6.87;2.77;;;19.10;71.10;;;;;;5075346;28;20230;-95
2022/07/22 04:09:28;;;;;;;8.30;3.50;;;19.10;71.40;;;;;;5074109;28;20595;-93
2022/07/22 04:11:57;;;;;;;11.20;3.50;;;19.10;71.20;;;;;;5074744;28;20225;-94
2022/07/22 04:14:25;;;;;;;8.13;3.60;;;19.00;71.40;;;;;;5074672;28;20207;-94
2022/07/22 04:16:53;;;;;;;6.83;2.20;;;19.00;71.20;;;;;;5074968;28;20187;-95
2022/07/22 04:19:22;;;;;;;8.57;3.57;;;19.00;71.10;;;;;;5088318;28;20205;-96
2022/07/22 04:21:50;;;;;;;6.70;3.13;;;19.00;71.50;;;;;;5094569;28;20654;-95
2022/07/22 04:24:19;;;;;;;7.90;3.33;;;19.00;71.50;;;;;;5092163;28;20761;-93
2022/07/22 04:26:47;;;;;;;11.70;4.10;;;18.90;71.50;;;;;;5091288;28;20195;-94
2022/07/22 04:29:15;;;;;;;10.77;3.77;;;18.90;71.40;;;;;;5080647;28;20208;-95
2022/07/22 04:31:42;;;;;;;7.70;3.13;;;19.00;71.90;;;;;;5078067;28;20608;-95
2022/07/22 04:34:11;;;;;;;7.17;2.70;;;18.90;71.80;;;;;;5093460;28;20219;-94
2022/07/22 04:36:42;;;;;;;10.33;3.83;;;18.90;72.10;;;;;;5075701;28;20240;-94
2022/07/22 04:39:09;;;;;;;8.10;3.10;;;18.90;72.10;;;;;;5092992;28;20200;-94
2022/07/22 04:41:38;;;;;;;11.90;4.50;;;18.90;72.10;;;;;;5075818;28;20211;-94
2022/07/22 04:44:08;;;;;;;5.23;2.77;;;18.90;72.90;;;;;;5074314;28;20701;-95
2022/07/22 04:46:38;;;;;;;14.30;4.50;;;18.80;72.20;;;;;;5090084;28;20299;-95
2022/07/22 04:49:11;;;;;;;6.13;2.90;;;18.80;72.50;;;;;;5092530;28;20200;-95
2022/07/22 04:51:38;;;;;;;5.37;2.70;;;18.90;73.00;;;;;;5094501;28;20237;-95
2022/07/22 04:54:09;;;;;;;7.20;2.87;;;18.80;72.50;;;;;;5078673;28;20548;-95
2022/07/22 04:56:39;;;;;;;9.13;3.27;;;18.80;72.90;;;;;;5073963;28;20227;-95
2022/07/22 04:59:06;;;;;;;7.80;2.77;;;18.80;73.30;;;;;;5088492;28;20242;-95
2022/07/22 05:01:40;;;;;;;4.80;2.53;;;18.80;73.20;;;;;;5081701;28;20206;-95
2022/07/22 05:04:07;;;;;;;10.43;3.67;;;18.80;74.60;;;;;;5073845;28;20228;-94
2022/07/22 05:06:36;;;;;;;6.93;3.47;;;18.80;73.50;;;;;;5073950;28;20198;-95
2022/07/22 05:09:04;;;;;;;6.13;2.63;;;18.80;74.10;;;;;;5085106;28;20231;-95
2022/07/22 05:11:32;;;;;;;10.70;4.37;;;18.80;74.30;;;;;;5091830;28;20792;-96
2022/07/22 05:14:01;;;;;;;6.97;3.30;;;18.90;74.40;;;;;;5082278;28;20236;-95
2022/07/22 05:16:30;;;;;;;8.50;3.50;;;18.80;74.70;;;;;;5073884;28;20540;-95
2022/07/22 05:18:57;;;;;;;7.47;3.10;;;18.90;74.50;;;;;;5077677;28;20211;-95
2022/07/22 05:21:27;;;;;;;7.73;3.47;;;18.90;74.20;;;;;;5093112;28;20221;-94
2022/07/22 05:23:55;;;;;;;13.33;5.13;;;18.90;74.40;;;;;;5086602;28;20252;-96
2022/07/22 05:26:22;;;;;;;9.77;4.03;;;19.00;74.70;;;;;;5088402;28;20203;-94
2022/07/22 05:28:49;;;;;;;13.07;5.13;;;19.00;74.60;;;;;;5075715;28;20206;-95
2022/07/22 05:31:18;;;;;;;11.97;4.40;;;18.90;74.40;;;;;;5072465;28;20296;-92
2022/07/22 05:33:46;;;;;;;16.13;5.43;;;19.00;74.70;;;;;;5069786;28;20286;-92
2022/07/22 05:36:13;;;;;;;9.27;4.17;;;19.00;74.50;;;;;;5072344;28;20209;-91
2022/07/22 05:38:40;;;;;;;14.97;5.83;;;19.10;75.00;;;;;;5076902;28;20256;-91
2022/07/22 05:41:12;;;;;;;12.33;4.87;;;19.10;75.60;;;;;;5073750;28;20226;-92
2022/07/22 05:43:39;;;;;;;8.30;3.47;;;19.10;76.00;;;;;;5071465;28;20591;-93
2022/07/22 05:46:07;;;;;;;14.67;5.13;;;19.10;76.00;;;;;;5071219;28;20231;-92
2022/07/22 05:48:37;;;;;;;10.10;3.60;;;19.20;76.70;;;;;;5074161;28;20232;-95
2022/07/22 05:51:05;;;;;;;9.40;3.40;;;19.20;77.40;;;;;;5074869;28;20231;-93
2022/07/22 05:53:32;;;;;;;8.53;4.40;;;19.30;76.60;;;;;;5086077;28;20215;-91
2022/07/22 05:55:59;;;;;;;12.00;4.37;;;19.30;76.60;;;;;;5093208;28;20202;-92
2022/07/22 05:58:27;;;;;;;14.03;4.13;;;19.40;76.60;;;;;;5096528;28;20275;-91
2022/07/22 06:00:55;;;;;;;14.07;5.30;;;19.40;76.80;;;;;;5091038;28;20204;-93
2022/07/22 06:03:23;;;;;;;11.83;5.00;;;19.50;76.50;;;;;;5105908;28;20204;-95
2022/07/22 06:05:52;;;;;;;14.60;5.83;;;19.50;76.50;;;;;;5100283;28;20196;-94
2022/07/22 06:08:20;;;;;;;16.80;5.57;;;19.60;76.40;;;;;;5082387;28;20200;-92
2022/07/22 06:10:48;;;;;;;6.10;2.67;;;19.70;76.30;;;;;;5075971;28;20794;-95
2022/07/22 06:13:15;;;;;;;7.90;3.43;;;19.80;76.50;;;;;;5084381;28;20202;-95
2022/07/22 06:15:43;;;;;;;5.13;2.70;;;19.80;76.40;;;;;;5080822;28;20202;-92
2022/07/22 06:18:12;;;;;;;7.23;2.87;;;19.90;76.60;;;;;;5072484;28;20198;-96
2022/07/22 06:20:45;;;;;;;4.87;2.20;;;19.90;76.60;;;;;;5077494;28;20205;-95
2022/07/22 06:23:14;;;;;;;7.23;3.03;;;20.00;76.80;;;;;;5076503;28;20209;-94
2022/07/22 06:25:42;;;;;;;9.37;3.97;;;20.10;76.40;;;;;;5079644;28;20249;-96
2022/07/22 06:28:10;;;;;;;6.13;2.87;;;20.20;75.80;;;;;;5074864;28;20543;-95
2022/07/22 06:30:38;;;;;;;7.43;2.50;;;20.20;76.00;;;;;;5077054;28;20587;-96
2022/07/22 06:33:07;;;;;;;7.33;2.30;;;20.30;75.80;;;;;;5074337;28;20208;-94
2022/07/22 06:35:38;;;;;;;14.20;3.53;;;20.30;75.60;;;;;;5082560;28;20627;-93
2022/07/22 06:38:07;;;;;;;10.50;3.17;;;20.50;75.50;;;;;;5086106;28;20564;-95
2022/07/22 06:40:36;;;;;;;5.90;2.60;;;20.50;75.20;;;;;;5081473;28;20217;-94
2022/07/22 06:43:04;;;;;;;7.03;2.73;;;20.60;75.40;;;;;;5072458;28;20304;-93
2022/07/22 06:45:31;;;;;;;5.37;2.53;;;20.70;75.10;;;;;;5085651;28;20559;-93
2022/07/22 06:47:59;;;;;;;9.73;3.30;;;20.80;74.70;;;;;;5083412;28;20734;-93
2022/07/22 06:50:26;;;;;;;10.67;3.20;;;20.80;74.20;;;;;;5070056;28;20236;-92
2022/07/22 06:52:56;;;;;;;4.37;2.07;;;20.90;74.30;;;;;;5071609;28;20302;-93
2022/07/22 06:55:25;;;;;;;7.23;2.77;;;20.90;73.80;;;;;;5079814;28;20218;-94
2022/07/22 06:57:56;;;;;;;6.70;2.60;;;21.00;73.20;;;;;;5083253;28;20622;-92
2022/07/22 07:00:24;;;;;;;8.73;2.50;;;21.10;73.50;;;;;;5075935;28;20243;-92
2022/07/22 07:02:51;;;;;;;7.90;2.90;;;21.10;72.90;;;;;;5077793;28;20250;-93
2022/07/22 07:05:24;;;;;;;7.07;2.10;;;21.20;72.70;;;;;;5084207;28;20194;-95
2022/07/22 07:07:54;;;;;;;11.53;3.43;;;21.30;71.90;;;;;;5078673;28;20603;-95
2022/07/22 07:10:21;;;;;;;9.17;2.73;;;21.30;71.80;;;;;;5076922;28;20727;-94
2022/07/22 07:12:48;;;;;;;5.83;2.53;;;21.40;71.50;;;;;;5077268;28;20211;-94
2022/07/22 07:15:18;;;;;;;4.93;1.93;;;21.50;71.10;;;;;;5076733;28;20207;-95
2022/07/22 07:17:45;;;;;;;7.50;2.60;;;21.50;70.00;;;;;;5076239;28;20264;-94
2022/07/22 07:20:13;;;;;;;4.20;1.43;;;21.60;70.40;;;;;;5075298;28;20573;-93
2022/07/22 07:22:43;;;;;;;5.37;1.60;;;21.60;70.30;;;;;;5080868;28;20223;-94
2022/07/22 07:25:12;;;;;;;5.17;2.07;;;21.70;69.80;;;;;;5095537;28;20621;-94
2022/07/22 07:27:40;;;;;;;6.33;2.43;;;21.70;69.80;;;;;;5091282;28;20203;-94
2022/07/22 07:30:11;;;;;;;8.57;2.63;;;21.70;69.50;;;;;;5075155;28;20259;-94
2022/07/22 07:32:41;;;;;;;7.73;2.63;;;21.80;68.80;;;;;;5079861;28;20236;-94
2022/07/22 07:35:10;;;;;;;7.77;3.50;;;21.80;69.10;;;;;;5076005;28;20206;-94
2022/07/22 07:37:37;;;;;;;9.67;3.43;;;21.90;69.00;;;;;;5084556;28;20207;-95
2022/07/22 07:40:06;;;;;;;5.43;2.40;;;21.90;68.70;;;;;;5074441;28;20269;-95
2022/07/22 07:42:33;;;;;;;7.37;2.77;;;21.90;68.40;;;;;;5075351;28;20207;-95
2022/07/22 07:45:00;;;;;;;8.47;3.23;;;22.00;68.60;;;;;;5085319;28;20637;-95
2022/07/22 07:47:29;;;;;;;5.37;2.33;;;22.00;68.20;;;;;;5089425;28;20595;-95
2022/07/22 07:50:02;;;;;;;9.63;3.40;;;22.00;67.90;;;;;;5090993;28;20316;-92
2022/07/22 07:52:30;;;;;;;4.30;1.73;;;22.10;68.00;;;;;;5097795;28;20227;-94
2022/07/22 07:54:58;;;;;;;5.03;2.03;;;22.10;68.00;;;;;;5095829;28;20268;-95
2022/07/22 07:57:26;;;;;;;6.47;1.97;;;22.10;68.10;;;;;;5096647;28;20207;-95
2022/07/22 07:59:55;;;;;;;8.80;3.30;;;22.20;68.60;;;;;;5078315;28;20195;-94
2022/07/22 08:02:23;;;;;;;6.80;2.63;;;22.20;68.10;;;;;;5084189;28;20204;-95
2022/07/22 08:04:53;;;;;;;3.03;1.67;;;22.30;67.70;;;;;;5093745;28;20258;-95
2022/07/22 08:07:23;;;;;;;5.87;1.93;;;22.40;66.70;;;;;;5093991;28;20238;-95
2022/07/22 08:09:52;;;;;;;6.23;2.17;;;22.40;66.50;;;;;;5091337;28;20217;-93
2022/07/22 08:12:20;;;;;;;10.97;3.23;;;22.40;67.40;;;;;;5092594;28;20266;-96
2022/07/22 08:14:52;;;;;;;5.20;2.17;;;22.50;67.40;;;;;;5080283;28;20211;-93
2022/07/22 08:17:22;;;;;;;4.87;1.90;;;22.60;67.10;;;;;;5073589;28;20207;-94
2022/07/22 08:19:53;;;;;;;7.97;2.17;;;22.60;66.70;;;;;;5073982;28;20202;-94
2022/07/22 08:22:23;;;;;;;9.37;3.87;;;22.70;66.10;;;;;;5074376;28;20801;-94
2022/07/22 08:24:53;;;;;;;4.73;2.27;;;22.70;66.00;;;;;;5090436;28;20268;-94
2022/07/22 08:27:21;;;;;;;6.27;2.73;;;22.80;66.20;;;;;;5094058;28;20230;-93
2022/07/22 08:29:50;;;;;;;7.00;2.43;;;22.90;65.70;;;;;;5094050;28;20201;-93
2022/07/22 08:32:19;;;;;;;6.30;2.50;;;22.90;64.70;;;;;;5091839;28;20701;-96
2022/07/22 08:34:56;;;;;;;5.70;2.37;;;23.00;65.20;;;;;;5090930;28;20197;-95
2022/07/22 08:37:38;;;;;;;6.60;2.53;;;23.10;64.10;;;;;;5091944;28;20206;-95
2022/07/22 08:40:17;;;;;;;11.50;4.17;;;23.10;64.10;;;;;;5092076;28;20196;-94
2022/07/22 08:42:47;;;;;;;5.70;2.60;;;23.20;63.40;;;;;;5092253;28;20194;-92
2022/07/22 08:45:15;;;;;;;5.87;1.97;;;23.30;64.10;;;;;;5092766;28;20290;-94
2022/07/22 08:47:46;;;;;;;9.03;3.63;;;23.30;64.40;;;;;;5095199;28;20194;-93
2022/07/22 08:50:14;;;;;;;5.70;2.00;;;23.40;64.60;;;;;;5091480;28;20228;-94
2022/07/22 08:52:43;;;;;;;5.47;2.77;;;23.40;64.40;;;;;;5088088;28;20220;-94
2022/07/22 08:55:23;;;;;;;5.30;2.47;;;23.50;63.90;;;;;;5091990;28;20208;-93
2022/07/22 08:57:52;;;;;;;4.87;2.13;;;23.60;63.90;;;;;;5093166;28;20196;-95
2022/07/22 09:00:21;;;;;;;6.80;2.07;;;23.60;63.60;;;;;;5091727;28;20187;-93
2022/07/22 09:02:50;;;;;;;9.07;4.03;;;23.70;63.00;;;;;;5088577;28;20286;-93
2022/07/22 09:05:19;;;;;;;5.73;2.27;;;23.70;63.30;;;;;;5090636;28;20272;-93
2022/07/22 09:07:48;;;;;;;6.80;2.60;;;23.80;63.00;;;;;;5090585;28;20305;-93
2022/07/22 09:10:19;;;;;;;5.67;2.20;;;23.80;62.90;;;;;;5089151;28;20277;-92
2022/07/22 09:12:59;;;;;;;5.30;2.17;;;23.90;62.60;;;;;;5088390;28;20220;-93
2022/07/22 09:15:28;;;;;;;7.43;3.13;;;23.90;61.90;;;;;;5088464;28;20194;-91
2022/07/22 09:17:56;;;;;;;6.33;2.33;;;24.00;62.40;;;;;;5090095;28;20187;-93
2022/07/22 09:20:23;;;;;;;6.27;2.70;;;24.10;62.00;;;;;;5089554;28;20678;-92
2022/07/22 09:22:53;;;;;;;4.03;1.87;;;24.10;62.50;;;;;;5089207;28;20323;-93
2022/07/22 09:25:34;;;;;;;8.67;3.57;;;24.10;62.00;;;;;;5087633;28;20192;-90
2022/07/22 09:28:17;;;;;;;5.57;2.17;;;24.30;61.60;;;;;;5088147;28;20893;-95
2022/07/22 09:30:55;;;;;;;7.00;2.67;;;24.40;61.00;;;;;;5089727;28;20225;-93
2022/07/22 09:33:24;;;;;;;6.17;2.87;;;24.50;60.70;;;;;;5085462;28;20308;-95
2022/07/22 09:36:01;;;;;;;7.27;3.17;;;24.60;60.80;;;;;;5072028;28;20256;-94
2022/07/22 09:38:34;;;;;;;5.57;2.47;;;24.70;60.90;;;;;;5071178;28;20277;-95
2022/07/22 09:41:02;;;;;;;10.80;3.60;;;24.80;61.00;;;;;;5070447;28;20203;-92
2022/07/22 09:43:38;;;;;;;7.67;3.60;;;24.90;60.70;;;;;;5070226;28;20274;-92
2022/07/22 09:46:06;;;;;;;6.40;2.87;;;25.10;59.70;;;;;;5069481;28;20286;-93
2022/07/22 09:48:33;;;;;;;5.13;2.90;;;25.20;59.90;;;;;;5070432;28;20218;-94
2022/07/22 09:51:01;;;;;;;8.27;2.80;;;25.40;60.00;;;;;;5070221;28;20650;-94
2022/07/22 09:53:30;;;;;;;9.03;3.63;;;25.50;60.00;;;;;;5069618;28;20237;-94
2022/07/22 09:56:00;;;;;;;7.43;3.50;;;25.60;60.10;;;;;;5070225;28;20252;-94
2022/07/22 09:58:29;;;;;;;7.60;3.20;;;25.80;59.60;;;;;;5074635;28;20212;-92
2022/07/22 10:01:00;;;;;;;4.93;2.67;;;26.00;59.20;;;;;;5090283;28;20710;-93
2022/07/22 10:03:30;;;;;;;7.37;3.20;;;26.10;58.60;;;;;;5081229;28;20230;-92
2022/07/22 10:06:01;;;;;;;8.27;3.53;;;26.30;58.40;;;;;;5069021;28;20227;-92
2022/07/22 10:08:30;;;;;;;7.13;3.63;;;26.40;58.40;;;;;;5068041;28;20668;-92
2022/07/22 10:11:02;;;;;;;7.27;3.00;;;26.60;57.90;;;;;;5068927;28;20264;-92
2022/07/22 10:13:30;;;;;;;9.60;3.63;;;26.70;57.80;;;;;;5069108;28;20645;-92
2022/07/22 10:15:59;;;;;;;7.10;3.27;;;26.80;57.20;;;;;;5069793;28;20655;-94
2022/07/22 10:18:29;;;;;;;8.40;3.90;;;26.90;57.30;;;;;;5073113;28;20210;-94
2022/07/22 10:21:04;;;;;;;8.90;3.40;;;27.00;56.80;;;;;;5091980;28;20187;-95
2022/07/22 10:23:32;;;;;;;8.60;3.30;;;27.10;56.30;;;;;;5092575;28;20530;-95
2022/07/22 10:26:03;;;;;;;3.80;1.97;;;27.20;57.10;;;;;;5084724;28;20191;-95
2022/07/22 10:28:36;;;;;;;5.50;2.47;;;27.30;56.10;;;;;;5086208;28;20203;-95
2022/07/22 10:31:24;;;;;;;2.17;1.43;;;27.40;55.20;;;;;;5100241;28;20206;-94
2022/07/22 10:33:53;;;;;;;3.17;1.93;;;27.40;54.40;;;;;;5090423;28;20226;-94
2022/07/22 10:36:42;;;;;;;5.97;2.73;;;27.50;55.10;;;;;;5080487;28;20218;-95
2022/07/22 10:39:19;;;;;;;8.40;3.30;;;27.50;53.50;;;;;;5081530;28;20190;-95
2022/07/22 10:41:53;;;;;;;7.47;3.00;;;27.50;54.00;;;;;;5082150;28;20746;-94
2022/07/22 10:44:48;;;;;;;8.67;3.03;;;27.40;53.90;;;;;;5082472;28;20200;-94
2022/07/22 10:47:15;;;;;;;2.33;1.73;;;27.40;53.80;;;;;;5099377;28;20194;-96
2022/07/22 10:49:43;;;;;;;6.03;2.80;;;27.30;54.00;;;;;;5101237;28;20217;-95
2022/07/22 10:52:16;;;;;;;4.43;2.13;;;27.20;54.30;;;;;;5099057;28;20252;-95
2022/07/22 10:55:19;;;;;;;3.77;2.17;;;27.20;54.60;;;;;;5101026;28;20705;-95
2022/07/22 10:57:53;;;;;;;5.13;2.30;;;27.10;54.40;;;;;;5102221;28;20190;-96
2022/07/22 11:00:27;;;;;;;7.47;2.67;;;27.10;53.80;;;;;;5097893;28;20274;-95
2022/07/22 11:02:54;;;;;;;4.53;2.50;;;27.10;54.30;;;;;;5098931;28;20202;-95
2022/07/22 11:05:39;;;;;;;4.60;2.20;;;27.00;54.20;;;;;;5101677;28;20252;-96
2022/07/22 11:08:12;;;;;;;7.23;2.17;;;26.90;53.60;;;;;;5103786;28;20231;-96
2022/07/22 11:10:48;;;;;;;10.20;3.40;;;26.90;54.30;;;;;;5101762;28;20564;-96
2022/07/22 11:13:33;;;;;;;3.93;2.50;;;26.90;54.60;;;;;;5102943;28;20226;-95
2022/07/22 11:16:15;;;;;;;5.53;2.90;;;26.90;54.10;;;;;;5108588;28;20210;-96
2022/07/22 11:18:46;;;;;;;8.00;3.03;;;26.90;53.30;;;;;;5097746;28;20202;-92
2022/07/22 11:21:20;;;;;;;5.67;2.83;;;26.90;54.40;;;;;;5102148;28;20203;-92
2022/07/22 11:23:51;;;;;;;9.73;4.70;;;26.90;54.10;;;;;;5099500;28;20581;-94
2022/07/22 11:26:21;;;;;;;5.00;3.23;;;26.90;54.20;;;;;;5095513;28;20203;-95
2022/07/22 11:28:49;;;;;;;4.67;2.43;;;26.90;54.60;;;;;;5096901;28;20191;-92
2022/07/22 11:31:22;;;;;;;5.80;3.07;;;26.90;54.70;;;;;;5102620;28;20191;-95
2022/07/22 11:34:08;;;;;;;5.97;2.87;;;26.90;54.10;;;;;;5095793;28;20251;-93
2022/07/22 11:36:37;;;;;;;7.97;3.00;;;26.90;53.70;;;;;;5095993;28;20207;-93
2022/07/22 11:39:04;;;;;;;6.77;2.90;;;26.90;54.40;;;;;;5094388;28;20241;-95
2022/07/22 11:41:33;;;;;;;10.93;3.67;;;26.90;54.40;;;;;;5094918;28;20187;-94
2022/07/22 11:44:01;;;;;;;5.63;3.00;;;26.90;54.30;;;;;;5095090;28;20230;-95
2022/07/22 11:46:35;;;;;;;8.37;4.27;;;26.90;54.10;;;;;;5087160;28;20203;-93
2022/07/22 11:49:05;;;;;;;7.90;3.93;;;26.90;54.10;;;;;;5093151;28;20643;-92
2022/07/22 11:51:38;;;;;;;6.57;3.50;;;26.90;54.40;;;;;;5100929;28;20209;-93
2022/07/22 11:54:06;;;;;;;6.47;3.57;;;26.90;54.10;;;;;;5096218;28;20591;-94
2022/07/22 11:56:33;;;;;;;4.80;2.23;;;27.00;53.50;;;;;;5095747;28;20651;-94
2022/07/22 11:59:04;;;;;;;5.10;3.07;;;26.90;54.00;;;;;;5097526;28;20261;-95
2022/07/22 12:01:33;;;;;;;6.50;2.93;;;27.00;54.30;;;;;;5086100;28;20290;-94
2022/07/22 12:04:02;;;;;;;7.83;4.37;;;27.00;54.20;;;;;;5074804;28;20558;-95
2022/07/22 12:06:33;;;;;;;6.10;3.33;;;27.10;53.80;;;;;;5090829;28;20619;-93
2022/07/22 12:09:06;;;;;;;7.50;3.20;;;27.10;53.80;;;;;;5093621;28;20617;-92
2022/07/22 12:11:34;;;;;;;7.83;3.53;;;27.10;53.70;;;;;;5094401;28;20203;-93
2022/07/22 12:14:08;;;;;;;5.23;3.37;;;27.20;53.60;;;;;;5094927;28;20941;-96
2022/07/22 12:16:39;;;;;;;7.33;3.80;;;27.20;53.50;;;;;;5091023;28;20214;-93
2022/07/22 12:19:08;;;;;;;6.33;3.07;;;27.20;53.50;;;;;;5092928;28;20276;-94
2022/07/22 12:21:37;;;;;;;6.50;3.33;;;27.30;53.70;;;;;;5093421;28;20675;-94
2022/07/22 12:24:25;;;;;;;5.00;3.33;;;27.30;53.20;;;;;;5093685;28;20735;-92
2022/07/22 12:28:00;;;;;;;9.60;4.60;;;27.40;53.20;;;;;;5093437;28;20248;-95
2022/07/22 12:30:48;;;;;;;7.37;3.60;;;27.40;52.90;;;;;;5091877;28;20259;-93
2022/07/22 12:33:16;;;;;;;12.53;5.00;;;27.50;52.30;;;;;;5101492;28;20237;-94
2022/07/22 12:35:44;;;;;;;8.23;4.13;;;27.50;52.50;;;;;;5095345;28;20207;-93
2022/07/22 12:38:15;;;;;;;4.47;2.90;;;27.50;52.60;;;;;;5091841;28;20976;-95
2022/07/22 12:40:44;;;;;;;6.53;3.10;;;27.50;51.70;;;;;;5092111;28;20199;-94
2022/07/22 12:43:13;;;;;;;8.60;4.50;;;27.50;51.80;;;;;;5091480;28;20183;-92
2022/07/22 12:45:42;;;;;;;4.67;3.37;;;27.50;51.60;;;;;;5091972;28;20629;-95
2022/07/22 12:48:14;;;;;;;4.93;3.40;;;27.50;51.70;;;;;;5093371;28;20211;-95
2022/07/22 12:50:43;;;;;;;4.37;3.07;;;27.50;51.40;;;;;;5094052;28;20202;-96
2022/07/22 12:53:12;;;;;;;5.80;3.33;;;27.50;51.80;;;;;;5087460;28;20225;-94
2022/07/22 12:55:42;;;;;;;6.40;3.53;;;27.50;52.00;;;;;;5091226;28;20237;-93
2022/07/22 12:58:12;;;;;;;6.33;3.77;;;27.50;51.60;;;;;;5091513;28;20278;-95
2022/07/22 13:00:47;;;;;;;5.93;3.73;;;27.40;51.20;;;;;;5090265;28;20283;-94
2022/07/22 13:03:18;;;;;;;7.93;4.03;;;27.40;51.60;;;;;;5091280;28;20214;-93
2022/07/22 13:05:49;;;;;;;5.70;3.73;;;27.40;51.30;;;;;;5090923;28;20576;-94
2022/07/22 13:08:16;;;;;;;7.53;3.47;;;27.40;51.30;;;;;;5089897;28;20202;-94